Rakitna Rakitna

Učna pot


Verjetnost toče več informacij Hail probability


Požarna ogroženost več informacij Fire risk


Moja kamera več informacij My webcam


Rakitna DRSI več informacij Rakitna DRSI


Obiščite še:

Template documentacija
in prenos

in še drugo stran



Posebna pozornost v zvezi z vremenskimi dogajanji ni potrebna.    Posebna pozornost v zvezi z vremenskimi dogajanji ni potrebna.

Weather Underground, zgodovina - Tekstovno

Dnevni povzetek za Avgust 15, 2018 Enote:  Metrično    Angleško   Obe
« Predhodnji Dan
Naslednji Dan »
Dnevni Tedenski Mesečni Letni Po meri
  Trenutno: Višja: Nižja: Povprečje:
Temperatura: 17.4 °C 22.7 °C -17.8 °C 12.1 °C
Točka rosišča: 13.9 °C 15.3 °C -18222.2 °C -3233.5 °C
Vlažnost: 80 % 95 % 0 % 62 %
Hitrost vetra: 3.2 km/h 11.3 km/h 0.0 km/h 3.9 km/h
Sunki vetra: 3.2 km/h 17.7 km/h - -
Veter:ESE - - East
Zračni tlak: 1017.2 hPa 1017.2 hPa 0.0 hPa -
Padavine: 0.3 mm      
Historical Graphs
 
 
Tabelarni podarki za Avgust 15, 2018
Čas Temperatura Točka rosišča Zračni tlak Veter Hitrost vetra Sunki vetra Vlažnost Intenziteta padavin (urna)
00:00 15.6 °C 14.4 °C 1013.8 hPa East 1.6 km/h 4.8 km/h 94 % 0.0 mm
00:06 15.6 °C 14.7 °C 1013.8 hPa SE 1.6 km/h 1.6 km/h 94 % 0.0 mm
00:11 15.6 °C 14.7 °C 1013.8 hPa ESE 1.6 km/h 4.8 km/h 94 % 0.0 mm
00:20 15.6 °C 14.7 °C 1014.1 hPa ESE 1.6 km/h 1.6 km/h 94 % 0.0 mm
00:26 15.6 °C 14.6 °C 1014.1 hPa ESE 1.6 km/h 1.6 km/h 94 % 0.0 mm
00:40 15.5 °C 14.6 °C 1014.1 hPa Calm     94 % 0.0 mm
00:50 15.6 °C 14.6 °C 1014.1 hPa Calm     94 % 0.0 mm
00:56 15.6 °C 14.8 °C 1014.1 hPa Calm   1.6 km/h 95 % 0.0 mm
01:05 15.7 °C 14.9 °C 1014.4 hPa ESE 1.6 km/h 1.6 km/h 95 % 0.0 mm
01:10 15.7 °C 14.9 °C 1014.4 hPa ESE 1.6 km/h 1.6 km/h 95 % 0.0 mm
01:20 15.8 °C 15.0 °C 1014.4 hPa ESE 3.2 km/h 3.2 km/h 95 % 0.0 mm
01:25 15.8 °C 15.0 °C 1014.4 hPa ESE 3.2 km/h 3.2 km/h 95 % 0.0 mm
01:35 15.7 °C 14.8 °C 1014.4 hPa ESE 3.2 km/h 3.2 km/h 94 % 0.0 mm
02:20 15.8 °C 15.1 °C 1014.1 hPa East 3.2 km/h 3.2 km/h 95 % 0.0 mm
02:35 16.0 °C 15.1 °C 1014.1 hPa ENE 3.2 km/h 4.8 km/h 94 % 0.0 mm
02:40 16.0 °C 15.1 °C 1014.1 hPa ENE 3.2 km/h 4.8 km/h 94 % 0.0 mm
03:21 16.2 °C 14.6 °C 1014.1 hPa ENE 3.2 km/h 3.2 km/h 90 % 0.0 mm
03:25 16.1 °C 14.7 °C 1014.1 hPa NE 1.6 km/h 4.8 km/h 91 % 0.0 mm
03:40 15.9 °C 14.5 °C 1014.1 hPa NE 1.6 km/h 1.6 km/h 91 % 0.0 mm
03:50 15.9 °C 14.5 °C 1014.1 hPa NNE 1.6 km/h 3.2 km/h 91 % 0.0 mm
03:55 15.9 °C 14.4 °C 1014.1 hPa ENE 3.2 km/h 3.2 km/h 91 % 0.0 mm
04:05 16.1 °C 14.4 °C 1014.1 hPa SSE 3.2 km/h 3.2 km/h 90 % 0.0 mm
04:10 16.1 °C 14.4 °C 1014.1 hPa SSE 3.2 km/h 3.2 km/h 90 % 0.0 mm
04:20 16.2 °C 14.2 °C 1014.1 hPa ENE 1.6 km/h 1.6 km/h 88 % 0.0 mm
04:25 16.2 °C 14.1 °C 1014.4 hPa NE 1.6 km/h 1.6 km/h 87 % 0.0 mm
04:35 -17.8 °C -18222.2 °C 0.0 hPa Calm     0 % 0.0 mm
04:40 -17.8 °C -18222.2 °C 0.0 hPa Calm     0 % 0.0 mm
04:45 -17.8 °C -18222.2 °C 0.0 hPa Calm     0 % 0.0 mm
04:50 -17.8 °C -18222.2 °C 0.0 hPa Calm     0 % 0.0 mm
04:55 -17.8 °C -18222.2 °C 0.0 hPa Calm     0 % 0.0 mm
05:00 -17.8 °C -18222.2 °C 0.0 hPa Calm     0 % 0.0 mm
05:05 -17.8 °C -18222.2 °C 0.0 hPa Calm     0 % 0.0 mm
05:11 -17.8 °C -18222.2 °C 0.0 hPa Calm     0 % 0.0 mm
05:15 -17.8 °C -18222.2 °C 0.0 hPa Calm     0 % 0.0 mm
05:20 -17.8 °C -18222.2 °C 0.0 hPa Calm     0 % 0.0 mm
05:25 -17.8 °C -18222.2 °C 0.0 hPa Calm     0 % 0.0 mm
05:30 -17.8 °C -18222.2 °C 0.0 hPa Calm   3.2 km/h 0 % 0.0 mm
05:35 -17.8 °C -18222.2 °C 0.0 hPa Calm   3.2 km/h 0 % 0.0 mm
05:40 -17.8 °C -18222.2 °C 0.0 hPa Calm   3.2 km/h 0 % 0.0 mm
05:50 16.1 °C 13.8 °C 1014.4 hPa NNE 1.6 km/h 4.8 km/h 86 % 0.0 mm
05:56 16.0 °C 13.7 °C 1014.8 hPa NNE 1.6 km/h 4.8 km/h 86 % 0.0 mm
06:20 15.9 °C 13.8 °C 1015.1 hPa Calm     87 % 0.0 mm
06:26 15.9 °C 13.7 °C 1015.1 hPa Calm     87 % 0.0 mm
06:35 15.7 °C 13.5 °C 1015.1 hPa ENE 1.6 km/h 1.6 km/h 87 % 0.0 mm
06:40 15.6 °C 13.6 °C 1015.1 hPa Calm   3.2 km/h 88 % 0.0 mm
06:51 15.6 °C 13.6 °C 1015.1 hPa Calm     88 % 0.0 mm
06:55 15.6 °C 13.6 °C 1015.1 hPa Calm     88 % 0.0 mm
07:05 15.8 °C 13.6 °C 1015.1 hPa East 1.6 km/h 1.6 km/h 87 % 0.0 mm
07:10 15.9 °C 13.6 °C 1015.1 hPa East 1.6 km/h 1.6 km/h 86 % 0.0 mm
07:20 16.2 °C 13.3 °C 1015.5 hPa East 1.6 km/h 1.6 km/h 83 % 0.0 mm
07:25 16.3 °C 13.6 °C 1015.5 hPa East 1.6 km/h 1.6 km/h 84 % 0.0 mm
07:35 16.5 °C 13.8 °C 1015.5 hPa East 1.6 km/h 1.6 km/h 84 % 0.0 mm
07:40 16.6 °C 14.0 °C 1015.5 hPa ESE 1.6 km/h 4.8 km/h 85 % 0.0 mm
07:55 16.7 °C 14.0 °C 1015.5 hPa East 1.6 km/h 4.8 km/h 84 % 0.0 mm
08:05 16.9 °C 14.2 °C 1015.5 hPa ESE 3.2 km/h 3.2 km/h 84 % 0.0 mm
08:10 17.1 °C 14.2 °C 1015.5 hPa ESE 4.8 km/h 4.8 km/h 83 % 0.0 mm
08:20 17.2 °C 14.1 °C 1015.5 hPa East 4.8 km/h 6.4 km/h 82 % 0.0 mm
08:25 17.2 °C 13.9 °C 1015.5 hPa SE 4.8 km/h 8.0 km/h 81 % 0.0 mm
08:35 17.3 °C 13.8 °C 1015.5 hPa SE 4.8 km/h 4.8 km/h 80 % 0.0 mm
08:50 17.6 °C 13.9 °C 1015.8 hPa ESE 4.8 km/h 4.8 km/h 79 % 0.0 mm
08:55 17.6 °C 13.7 °C 1015.5 hPa ESE 4.8 km/h 4.8 km/h 78 % 0.0 mm
09:05 17.7 °C 13.6 °C 1015.8 hPa SE 6.4 km/h 6.4 km/h 77 % 0.0 mm
09:10 17.8 °C 13.9 °C 1015.8 hPa ESE 4.8 km/h 6.4 km/h 78 % 0.0 mm
09:20 18.1 °C 13.4 °C 1015.8 hPa East 4.8 km/h 6.4 km/h 74 % 0.0 mm
09:25 18.3 °C 13.4 °C 1015.8 hPa East 6.4 km/h 6.4 km/h 73 % 0.0 mm
09:35 18.7 °C 13.8 °C 1015.8 hPa East 6.4 km/h 6.4 km/h 73 % 0.0 mm
09:40 18.9 °C 13.7 °C 1015.8 hPa ESE 6.4 km/h 6.4 km/h 72 % 0.0 mm
09:51 19.2 °C 13.6 °C 1016.1 hPa ESE 4.8 km/h 4.8 km/h 70 % 0.0 mm
09:55 19.1 °C 13.5 °C 1016.1 hPa SE 6.4 km/h 6.4 km/h 70 % 0.0 mm
10:05 19.3 °C 13.7 °C 1016.1 hPa SE 8.0 km/h 8.0 km/h 70 % 0.0 mm
10:10 19.2 °C 13.4 °C 1016.1 hPa ESE 9.7 km/h 12.9 km/h 69 % 0.0 mm
10:20 19.3 °C 13.9 °C 1016.5 hPa ESE 8.0 km/h 8.0 km/h 71 % 0.0 mm
10:25 19.4 °C 13.6 °C 1016.5 hPa NE 8.0 km/h 8.0 km/h 69 % 0.0 mm
10:35 19.7 °C 13.9 °C 1016.5 hPa ENE 4.8 km/h 6.4 km/h 69 % 0.0 mm
10:40 20.0 °C 14.3 °C 1016.5 hPa NE 6.4 km/h 14.5 km/h 70 % 0.0 mm
10:50 19.9 °C 14.1 °C 1016.5 hPa SE 9.7 km/h 9.7 km/h 69 % 0.0 mm
10:55 20.2 °C 14.3 °C 1016.5 hPa ESE 8.0 km/h 16.1 km/h 69 % 0.0 mm
11:05 19.8 °C 13.7 °C 1016.5 hPa SE 11.3 km/h 16.1 km/h 68 % 0.0 mm
11:10 19.9 °C 13.6 °C 1016.5 hPa SSE 11.3 km/h 16.1 km/h 67 % 0.0 mm
11:20 20.1 °C 13.3 °C 1016.5 hPa SSE 11.3 km/h 11.3 km/h 65 % 0.0 mm
11:25 20.2 °C 14.1 °C 1016.5 hPa ESE 11.3 km/h 11.3 km/h 68 % 0.0 mm
11:35 20.0 °C 13.4 °C 1016.5 hPa ESE 8.0 km/h 8.0 km/h 66 % 0.0 mm
11:50 -17.8 °C -18222.2 °C 0.0 hPa Calm     0 % 0.0 mm
11:55 -17.8 °C -18222.2 °C 0.0 hPa Calm     0 % 0.0 mm
12:00 -17.8 °C -18222.2 °C 0.0 hPa Calm     0 % 0.0 mm
12:05 -17.8 °C -18222.2 °C 0.0 hPa Calm     0 % 0.0 mm
12:10 -17.8 °C -18222.2 °C 0.0 hPa Calm     0 % 0.0 mm
12:15 -17.8 °C -18222.2 °C 0.0 hPa Calm     0 % 0.0 mm
12:20 -17.8 °C -18222.2 °C 0.0 hPa Calm     0 % 0.0 mm
12:25 -17.8 °C -18222.2 °C 0.0 hPa Calm     0 % 0.0 mm
12:30 -17.8 °C -18222.2 °C 0.0 hPa Calm     0 % 0.0 mm
12:35 -17.8 °C -18222.2 °C 0.0 hPa Calm     0 % 0.0 mm
12:40 -17.8 °C -18222.2 °C 0.0 hPa Calm     0 % 0.0 mm
12:45 -17.8 °C -18222.2 °C 0.0 hPa Calm     0 % 0.0 mm
12:55 21.2 °C 13.7 °C 1016.5 hPa West 11.3 km/h 11.3 km/h 62 % 0.0 mm
13:05 22.0 °C 13.6 °C 1016.5 hPa NNE 9.7 km/h 17.7 km/h 59 % 0.0 mm
13:11 22.0 °C 13.6 °C 1016.1 hPa NE 9.7 km/h 17.7 km/h 59 % 0.0 mm
13:20 22.2 °C 14.3 °C 1016.1 hPa SE 8.0 km/h 14.5 km/h 61 % 0.0 mm
13:25 22.3 °C 13.6 °C 1016.1 hPa SE 8.0 km/h 14.5 km/h 58 % 0.0 mm
13:35 22.0 °C 14.1 °C 1016.1 hPa SE 8.0 km/h 8.0 km/h 61 % 0.0 mm
13:40 21.6 °C 14.0 °C 1016.1 hPa ENE 6.4 km/h 8.0 km/h 62 % 0.0 mm
13:50 22.7 °C 14.0 °C 1016.1 hPa SE 8.0 km/h 14.5 km/h 58 % 0.0 mm
13:56 22.2 °C 13.8 °C 1016.1 hPa SE 9.7 km/h 14.5 km/h 59 % 0.0 mm
14:05 22.0 °C 13.6 °C 1016.1 hPa East 8.0 km/h 8.0 km/h 59 % 0.0 mm
14:11 21.9 °C 13.8 °C 1016.1 hPa SE 6.4 km/h 8.0 km/h 60 % 0.0 mm
14:35 21.6 °C 13.4 °C 1016.5 hPa SE 8.0 km/h 14.5 km/h 60 % 0.0 mm
14:40 21.7 °C 14.4 °C 1016.5 hPa ESE 9.7 km/h 14.5 km/h 63 % 0.0 mm
14:50 22.6 °C 13.3 °C 1016.5 hPa SE 11.3 km/h 11.3 km/h 56 % 0.0 mm
14:55 22.6 °C 14.4 °C 1016.5 hPa ENE 9.7 km/h 11.3 km/h 60 % 0.0 mm
15:05 22.7 °C 14.1 °C 1016.1 hPa ESE 8.0 km/h 12.9 km/h 58 % 0.0 mm
15:10 22.4 °C 14.3 °C 1016.1 hPa NE 8.0 km/h 12.9 km/h 60 % 0.0 mm
15:20 22.7 °C 14.1 °C 1016.1 hPa ESE 8.0 km/h 8.0 km/h 58 % 0.0 mm
15:26 22.7 °C 13.7 °C 1016.1 hPa East 8.0 km/h 8.0 km/h 57 % 0.0 mm
15:35 22.3 °C 13.4 °C 1016.1 hPa ESE 8.0 km/h 8.0 km/h 57 % 0.0 mm
15:50 21.7 °C 13.9 °C 1016.1 hPa SE 6.4 km/h 6.4 km/h 61 % 0.0 mm
15:55 21.5 °C 13.4 °C 1016.1 hPa ENE 8.0 km/h 8.0 km/h 60 % 0.0 mm
16:11 21.2 °C 13.9 °C 1016.1 hPa ENE 4.8 km/h 4.8 km/h 63 % 0.0 mm
16:20 20.9 °C 13.8 °C 1016.1 hPa ENE 6.4 km/h 6.4 km/h 64 % 0.0 mm
16:25 20.9 °C 14.1 °C 1016.1 hPa ESE 4.8 km/h 4.8 km/h 65 % 0.0 mm
16:35 21.1 °C 13.7 °C 1016.1 hPa NE 4.8 km/h 6.4 km/h 63 % 0.0 mm
16:55 21.3 °C 15.3 °C 1016.1 hPa ENE 6.4 km/h 6.4 km/h 69 % 0.0 mm
17:25 20.9 °C 14.3 °C 1015.8 hPa ESE 8.0 km/h 8.0 km/h 66 % 0.0 mm
18:26 20.9 °C 14.6 °C 1015.8 hPa East 8.0 km/h 8.0 km/h 67 % 0.0 mm
18:36 20.8 °C 14.5 °C 1015.8 hPa SSE 6.4 km/h 9.7 km/h 67 % 0.0 mm
18:40 20.9 °C 14.3 °C 1015.8 hPa East 6.4 km/h 11.3 km/h 66 % 0.0 mm
19:06 20.3 °C 14.4 °C 1015.8 hPa ESE 4.8 km/h 11.3 km/h 69 % 0.0 mm
19:10 20.1 °C 14.2 °C 1015.8 hPa SSE 4.8 km/h 11.3 km/h 69 % 0.0 mm
19:20 19.9 °C 14.3 °C 1015.8 hPa ESE 3.2 km/h 3.2 km/h 70 % 0.0 mm
19:25 19.8 °C 14.2 °C 1015.8 hPa SE 4.8 km/h 4.8 km/h 70 % 0.0 mm
19:35 19.5 °C 14.1 °C 1015.8 hPa East 3.2 km/h 4.8 km/h 71 % 0.0 mm
19:51 19.2 °C 13.8 °C 1015.8 hPa ESE 4.8 km/h 4.8 km/h 71 % 0.0 mm
19:55 19.1 °C 13.9 °C 1015.8 hPa East 3.2 km/h 4.8 km/h 72 % 0.0 mm
20:20 18.7 °C 13.9 °C 1016.1 hPa East 3.2 km/h 3.2 km/h 74 % 0.0 mm
20:35 18.4 °C 13.7 °C 1016.1 hPa East 3.2 km/h 3.2 km/h 74 % 0.0 mm
20:40 18.4 °C 13.7 °C 1016.1 hPa East 3.2 km/h 3.2 km/h 74 % 0.0 mm
20:50 18.4 °C 13.5 °C 1016.5 hPa East 3.2 km/h 3.2 km/h 73 % 0.0 mm
20:55 18.4 °C 13.3 °C 1016.5 hPa ESE 3.2 km/h 3.2 km/h 72 % 0.0 mm
21:05 18.4 °C 13.3 °C 1016.5 hPa East 3.2 km/h 4.8 km/h 72 % 0.0 mm
21:10 18.4 °C 13.3 °C 1016.5 hPa East 3.2 km/h 4.8 km/h 72 % 0.0 mm
21:26 18.1 °C 13.4 °C 1016.8 hPa East 3.2 km/h 3.2 km/h 74 % 0.0 mm
21:35 18.0 °C 13.5 °C 1016.8 hPa ESE 3.2 km/h 3.2 km/h 75 % 0.0 mm
21:40 18.0 °C 13.5 °C 1016.8 hPa ENE 3.2 km/h 3.2 km/h 75 % 0.0 mm
22:05 17.8 °C 13.7 °C 1017.2 hPa East 1.6 km/h 3.2 km/h 77 % 0.0 mm
22:11 17.7 °C 13.8 °C 1017.2 hPa ENE 1.6 km/h 3.2 km/h 78 % 0.0 mm
22:25 17.5 °C 13.8 °C 1017.2 hPa ENE 1.6 km/h 1.6 km/h 79 % 0.0 mm
22:41 17.4 °C 13.9 °C 1017.2 hPa ESE 3.2 km/h 3.2 km/h 80 % 0.0 mm
Weather-station Rakitna
Podatki zbrani iz Weather Underground - 2.25 mb

Script developed by  Jim McMurry - jmcmurry@mwt.net Adapted for the template by  Wim van der Kuil - Leuven-Template.eu

Vremenski podatki so objavljeni na:

Weather Underground

Slovenska vremenska mreža

WeatherlinkIP

MapView

Geostik

Oprema, ki se uporablja:

Vremenska postaja
Davis VP2+ ventilirana

Vremenski program
WeatherLink

Vremenski server
Shuttle XS35V4

Ponudnik
Vremensko društvo ZEVS

Davis VP2+ ventilirana

WeatherLink

Shuttle XS35V4

Vremensko društvo ZEVS

Meteorološki podatki vremenske postaje Rakitna so neuradni, meteorološka postaja sama pa ni del državne mreže Agencije Republike Slovenije za okolje (ARSO),
je pa vključena v Vremensko društvo ZEVS. Prikazani podatki so izmerjeni točno, vendar so zgolj informativni in nimajo značaja uradnega podatka.

Podatke meri vremenska postaja "Davis VP2+ ventilirana" od 05.03.2011 dalje.

Opozarjamo, da ne prevzamemo odgovornosti za morebitno nastalo škodo, ki bi nastala zaradi odločitve, sprejete na osnovi teh podatkov!